createdAt,value
2022-12-19T00:00:34.733Z,12.97
2022-12-19T00:05:40.775Z,12.90
2022-12-19T00:10:43.652Z,11.56
2022-12-19T00:15:45.605Z,12.41
2022-12-19T00:21:05.364Z,11.91
2022-12-19T00:26:15.168Z,11.71
2022-12-19T00:31:18.425Z,10.94
2022-12-19T00:36:24.049Z,9.87
2022-12-19T00:41:28.817Z,11.59
2022-12-19T00:46:32.933Z,11.41
2022-12-19T00:51:37.651Z,11.59
2022-12-19T00:56:43.425Z,12.80
2022-12-19T01:01:45.474Z,12.97
2022-12-19T01:06:49.870Z,13.53
2022-12-19T01:12:10.586Z,12.36
2022-12-19T01:17:12.835Z,13.39
2022-12-19T01:22:14.932Z,14.27
2022-12-19T01:27:17.052Z,13.44
2022-12-19T01:32:18.902Z,12.01
2022-12-19T01:37:21.152Z,12.76
2022-12-19T01:42:24.187Z,12.56
2022-12-19T01:47:28.532Z,12.47
2022-12-19T01:52:30.474Z,12.01
2022-12-19T01:57:32.631Z,11.14
2022-12-19T02:02:48.732Z,11.52
2022-12-19T02:07:52.339Z,9.91
2022-12-19T02:12:54.269Z,10.59
2022-12-19T02:18:34.579Z,11.04
2022-12-19T02:24:05.404Z,9.49
2022-12-19T02:29:12.122Z,8.33
2022-12-19T02:34:23.090Z,7.92
2022-12-19T02:39:50.916Z,8.58
2022-12-19T02:44:54.351Z,8.92
2022-12-19T02:49:56.631Z,9.35
2022-12-19T02:55:03.071Z,9.64
2022-12-19T03:00:08.478Z,8.67
2022-12-19T03:05:22.688Z,8.93
2022-12-19T03:10:38.697Z,9.04
2022-12-19T03:15:42.493Z,8.98
2022-12-19T03:21:10.637Z,9.91
2022-12-19T03:26:20.023Z,9.24
2022-12-19T03:31:24.205Z,9.59
2022-12-19T03:36:31.475Z,9.38
2022-12-19T03:41:54.266Z,9.59
2022-12-19T03:47:05.205Z,9.65
2022-12-19T03:52:22.609Z,9.72
2022-12-19T03:57:30.647Z,10.29
2022-12-19T04:02:36.275Z,9.81
2022-12-19T04:07:39.966Z,10.30
2022-12-19T04:12:47.274Z,9.63
2022-12-19T04:17:57.940Z,9.56
2022-12-19T04:23:05.941Z,10.38
2022-12-19T04:28:15.048Z,10.78
2022-12-19T04:33:16.912Z,10.44
2022-12-19T04:38:22.231Z,9.84
2022-12-19T04:43:24.134Z,10.78
2022-12-19T04:48:26.244Z,11.17
2022-12-19T04:53:28.289Z,12.27
2022-12-19T04:58:30.221Z,11.71
2022-12-19T05:03:33.356Z,12.30
2022-12-19T05:08:35.531Z,12.29
2022-12-19T05:13:37.743Z,11.93
2022-12-19T05:18:40.307Z,11.52
2022-12-19T05:23:42.181Z,11.82
2022-12-19T05:28:44.485Z,12.64
2022-12-19T05:33:46.991Z,12.63
2022-12-19T05:38:48.913Z,12.47
2022-12-19T05:43:53.520Z,12.81
2022-12-19T05:48:56.190Z,11.85
2022-12-19T05:54:00.626Z,11.16
2022-12-19T05:59:02.528Z,10.98
2022-12-19T06:04:04.541Z,11.47
2022-12-19T06:09:06.483Z,13.12
2022-12-19T06:14:08.488Z,13.07
2022-12-19T06:19:10.445Z,12.36
2022-12-19T06:24:12.314Z,14.12
2022-12-19T06:29:14.377Z,12.97
2022-12-19T06:34:33.281Z,13.25
2022-12-19T06:39:38.247Z,13.91
2022-12-19T06:44:40.229Z,14.62
2022-12-19T06:49:42.181Z,14.12
2022-12-19T06:54:44.167Z,13.55
2022-12-19T06:59:46.124Z,13.20
2022-12-19T07:04:52.817Z,12.33
2022-12-19T07:09:54.764Z,11.55
2022-12-19T07:14:56.908Z,10.84
2022-12-19T07:19:59.352Z,9.25
2022-12-19T07:25:03.542Z,9.05
2022-12-19T07:30:06.763Z,8.52
2022-12-19T07:35:09.597Z,9.86
2022-12-19T07:40:14.994Z,8.33
2022-12-19T07:45:17.221Z,7.95
2022-12-19T07:50:19.373Z,7.89
2022-12-19T07:55:21.584Z,8.03
2022-12-19T08:00:23.549Z,8.34
2022-12-19T08:05:25.395Z,7.78
2022-12-19T08:10:27.220Z,7.42
2022-12-19T08:15:29.088Z,8.00
2022-12-19T08:20:30.982Z,7.82
2022-12-19T08:25:33.490Z,8.63
2022-12-19T08:30:38.813Z,8.55
2022-12-19T08:35:40.659Z,7.82
2022-12-19T08:40:47.201Z,8.37
2022-12-19T08:45:50.261Z,8.27
2022-12-19T08:51:04.026Z,9.32
2022-12-19T08:56:10.350Z,7.71
2022-12-19T09:01:15.901Z,7.53
2022-12-19T09:06:19.090Z,6.46
2022-12-19T09:11:21.374Z,6.03
2022-12-19T09:16:25.652Z,5.94
2022-12-19T09:21:29.541Z,4.02
2022-12-19T09:26:32.901Z,4.30
2022-12-19T09:31:35.921Z,3.61
2022-12-19T09:36:37.908Z,3.62
2022-12-19T09:41:57.756Z,2.13
2022-12-19T09:47:03.422Z,0.69
2022-12-19T09:52:32.812Z,0.61
2022-12-19T09:57:50.647Z,0.77
2022-12-19T10:03:08.176Z,0.20
2022-12-19T10:08:25.854Z,1.86
2022-12-19T10:13:54.188Z,3.30
2022-12-19T10:19:00.544Z,5.74
2022-12-19T10:24:21.077Z,3.32
2022-12-19T10:29:38.054Z,3.78
2022-12-19T10:34:43.690Z,4.98
2022-12-19T10:39:45.827Z,5.51
2022-12-19T10:44:50.414Z,6.15
2022-12-19T10:49:52.439Z,5.78
2022-12-19T10:54:54.466Z,6.41
2022-12-19T11:00:00.975Z,6.60
2022-12-19T11:05:05.623Z,5.12
2022-12-19T11:11:09.359Z,4.64
2022-12-19T11:20:42.031Z,4.74
2022-12-19T11:29:40.174Z,5.95
2022-12-19T11:30:45.992Z,4.00
2022-12-19T11:32:44.363Z,5.28
2022-12-19T11:37:59.330Z,3.38
2022-12-19T11:43:43.904Z,4.36
2022-12-19T11:48:49.597Z,2.39
2022-12-19T11:54:10.201Z,2.19
2022-12-19T11:59:19.649Z,1.23
2022-12-19T12:04:30.879Z,2.97
2022-12-19T12:16:04.893Z,2.59
2022-12-19T12:25:09.714Z,1.30
2022-12-19T12:31:27.901Z,1.39
2022-12-19T12:31:59.001Z,1.95
2022-12-19T12:35:54.318Z,1.99
2022-12-19T12:38:44.175Z,3.13
2022-12-19T12:43:52.655Z,2.92
2022-12-19T12:49:03.026Z,2.63
2022-12-19T12:54:09.534Z,3.45
2022-12-19T12:59:22.515Z,4.03
2022-12-19T13:04:32.592Z,3.17
2022-12-19T13:09:36.681Z,4.93
2022-12-19T13:14:38.536Z,7.86
2022-12-19T13:19:58.130Z,7.28
2022-12-19T13:25:00.815Z,7.39
2022-12-19T13:30:08.759Z,7.61
2022-12-19T13:36:06.382Z,7.08
2022-12-19T13:40:54.022Z,8.03
2022-12-19T13:46:03.593Z,8.43
2022-12-19T13:51:08.329Z,7.86
2022-12-19T13:56:13.417Z,7.60
2022-12-19T14:01:24.603Z,7.21
2022-12-19T14:06:30.092Z,7.32
2022-12-19T14:12:18.780Z,7.32
2022-12-19T14:17:12.396Z,7.63
2022-12-19T14:22:26.854Z,7.48
2022-12-19T14:28:19.050Z,8.47
2022-12-19T14:33:44.185Z,9.81
2022-12-19T14:39:24.702Z,9.39
2022-12-19T14:52:36.094Z,8.89
2022-12-19T14:53:34.046Z,9.79
2022-12-19T14:56:00.520Z,9.75
2022-12-19T15:01:09.983Z,9.60
2022-12-19T15:07:05.660Z,11.46
2022-12-19T15:14:03.995Z,10.62
2022-12-19T15:17:28.855Z,11.62
2022-12-19T15:22:30.735Z,12.77
2022-12-19T15:27:32.590Z,12.04
2022-12-19T15:32:34.422Z,11.58
2022-12-19T15:37:36.304Z,15.45
2022-12-19T15:42:38.159Z,13.06
2022-12-19T15:47:43.852Z,15.73
2022-12-19T15:52:45.992Z,14.26
2022-12-19T15:57:53.845Z,14.04
2022-12-19T16:03:23.949Z,13.72
2022-12-19T16:08:25.363Z,13.16
2022-12-19T16:13:32.004Z,12.42
2022-12-19T16:18:34.203Z,14.13
2022-12-19T16:23:36.030Z,12.27
2022-12-19T16:28:39.032Z,12.96
2022-12-19T16:33:41.190Z,12.68
2022-12-19T16:38:43.146Z,14.83
2022-12-19T16:43:45.682Z,14.16
2022-12-19T16:48:48.449Z,14.30
2022-12-19T16:53:53.206Z,14.82
2022-12-19T16:58:56.481Z,15.16
2022-12-19T17:03:58.314Z,15.88
2022-12-19T17:09:00.188Z,14.92
2022-12-19T17:14:08.405Z,14.94
2022-12-19T17:19:45.361Z,16.87
2022-12-19T17:24:48.647Z,16.44
2022-12-19T17:29:50.840Z,17.26
2022-12-19T17:34:52.838Z,14.18
2022-12-19T17:39:54.900Z,16.13
2022-12-19T17:44:56.820Z,16.16
2022-12-19T17:49:59.189Z,15.48
2022-12-19T17:55:14.260Z,14.97
2022-12-19T18:00:18.255Z,14.30
2022-12-19T18:05:27.371Z,14.21
2022-12-19T18:10:31.284Z,13.75
2022-12-19T18:15:33.182Z,15.11
2022-12-19T18:20:35.573Z,13.59
2022-12-19T18:25:37.564Z,13.64
2022-12-19T18:30:40.323Z,13.43
2022-12-19T18:35:44.302Z,14.56
2022-12-19T18:40:47.176Z,12.42
2022-12-19T18:45:52.251Z,12.91
2022-12-19T18:50:55.784Z,11.54
2022-12-19T18:55:59.879Z,12.52
2022-12-19T19:01:03.752Z,12.60
2022-12-19T19:06:13.841Z,12.91
2022-12-19T19:11:16.031Z,11.81
2022-12-19T19:16:26.807Z,13.36
2022-12-19T19:21:32.417Z,12.86
2022-12-19T19:26:34.463Z,13.24
2022-12-19T19:31:39.370Z,11.52
2022-12-19T19:36:44.748Z,13.04
2022-12-19T19:41:46.739Z,12.53
2022-12-19T19:46:48.787Z,10.90
2022-12-19T19:51:56.822Z,11.28
2022-12-19T19:57:02.263Z,10.58
2022-12-19T20:02:04.258Z,10.93
2022-12-19T20:07:06.669Z,9.27
2022-12-19T20:12:09.364Z,10.74
2022-12-19T20:17:11.703Z,11.64
2022-12-19T20:22:13.651Z,10.96
2022-12-19T20:27:15.551Z,11.13
2022-12-19T20:32:17.646Z,10.29
2022-12-19T20:37:19.589Z,10.32
2022-12-19T20:42:21.502Z,11.17
2022-12-19T20:47:24.544Z,10.19
2022-12-19T20:52:26.593Z,10.71
2022-12-19T20:57:30.701Z,11.74
2022-12-19T21:02:46.557Z,10.66
2022-12-19T21:07:54.705Z,11.78
2022-12-19T21:12:57.338Z,9.79
2022-12-19T21:17:59.168Z,10.49
2022-12-19T21:23:01.155Z,9.85
2022-12-19T21:28:03.303Z,10.66
2022-12-19T21:33:05.391Z,11.26
2022-12-19T21:38:07.261Z,10.65
2022-12-19T21:43:12.019Z,10.09
2022-12-19T21:48:14.237Z,10.83
2022-12-19T21:53:16.220Z,10.62
2022-12-19T21:58:18.075Z,12.05
2022-12-19T22:03:20.132Z,11.36
2022-12-19T22:08:22.074Z,10.62
2022-12-19T22:13:24.872Z,11.92
2022-12-19T22:18:27.663Z,11.91
2022-12-19T22:23:29.816Z,12.68
2022-12-19T22:28:34.670Z,12.33
2022-12-19T22:33:36.552Z,14.79
2022-12-19T22:38:43.207Z,15.88
2022-12-19T22:43:45.932Z,17.35
2022-12-19T22:48:49.106Z,18.54
2022-12-19T22:53:51.376Z,19.87
2022-12-19T22:58:54.940Z,19.10
2022-12-19T23:03:58.063Z,20.02
2022-12-19T23:09:00.744Z,18.83
2022-12-19T23:14:03.980Z,20.16
2022-12-19T23:19:06.215Z,21.44
2022-12-19T23:24:08.417Z,22.03
2022-12-19T23:29:13.086Z,22.55
2022-12-19T23:34:15.896Z,22.21
2022-12-19T23:39:18.055Z,21.63
2022-12-19T23:44:20.195Z,22.02
2022-12-19T23:49:22.339Z,22.22
2022-12-19T23:54:24.366Z,23.88
2022-12-19T23:59:26.581Z,24.17
